createdAt,value
2023-05-15T00:00:28.722Z,9.60
2023-05-15T00:03:32.842Z,9.43
2023-05-15T00:06:36.949Z,8.97
2023-05-15T00:09:40.973Z,14.45
2023-05-15T00:12:44.891Z,12.20
2023-05-15T00:15:48.966Z,10.93
2023-05-15T00:18:53.095Z,15.85
2023-05-15T00:21:57.269Z,11.07
2023-05-15T00:25:01.220Z,10.95
2023-05-15T00:28:06.861Z,12.95
2023-05-15T00:31:11.250Z,11.43
2023-05-15T00:34:15.340Z,8.30
2023-05-15T00:37:19.226Z,6.18
2023-05-15T00:41:05.219Z,7.68
2023-05-15T00:44:07.588Z,11.82
2023-05-15T00:47:12.790Z,10.18
2023-05-15T00:50:20.761Z,7.72
2023-05-15T00:53:25.759Z,21.45
2023-05-15T00:56:35.439Z,8.73
2023-05-15T00:59:43.382Z,13.20
2023-05-15T01:02:49.555Z,14.45
2023-05-15T01:05:53.536Z,14.52
2023-05-15T01:09:02.968Z,7.35
2023-05-15T01:12:08.902Z,9.40
2023-05-15T01:15:15.834Z,8.52
2023-05-15T01:18:21.797Z,8.00
2023-05-15T01:21:46.699Z,8.73
2023-05-15T01:25:32.137Z,12.90
2023-05-15T01:28:44.176Z,7.15
2023-05-15T01:31:58.467Z,11.63
2023-05-15T01:35:15.537Z,8.20
2023-05-15T01:38:30.467Z,13.75
2023-05-15T01:46:13.323Z,9.52
2023-05-15T02:03:59.637Z,13.55
2023-05-15T02:07:58.775Z,9.50
2023-05-15T03:00:38.295Z,7.30
2023-05-15T03:04:11.787Z,9.32
2023-05-15T03:07:22.521Z,18.65
2023-05-15T03:10:26.631Z,6.10
2023-05-15T03:13:36.875Z,11.57
2023-05-15T03:16:45.837Z,9.88
2023-05-15T03:19:52.369Z,7.05
2023-05-15T03:23:15.504Z,8.43
2023-05-15T03:26:26.254Z,8.10
2023-05-15T03:29:39.877Z,12.52
2023-05-15T03:32:49.472Z,6.80
2023-05-15T03:36:29.869Z,6.85
2023-05-15T03:48:46.988Z,12.48
2023-05-15T03:51:51.263Z,8.45
2023-05-15T03:54:55.379Z,5.05
2023-05-15T03:57:59.875Z,7.85
2023-05-15T04:04:07.871Z,7.00
2023-05-15T04:07:12.041Z,7.05
2023-05-15T04:10:16.140Z,9.45
2023-05-15T04:13:20.095Z,7.07
2023-05-15T04:16:24.362Z,8.10
2023-05-15T04:19:28.293Z,9.47
2023-05-15T04:22:32.236Z,6.90
2023-05-15T04:25:36.956Z,14.65
2023-05-15T04:28:49.362Z,6.50
2023-05-15T04:32:00.802Z,21.42
2023-05-15T04:35:11.049Z,11.07
2023-05-15T04:38:15.163Z,15.73
2023-05-15T04:41:19.589Z,8.90
2023-05-15T04:44:23.961Z,8.00
2023-05-15T04:47:27.776Z,7.85
2023-05-15T04:51:26.961Z,8.30
2023-05-15T04:54:56.105Z,7.45
2023-05-15T04:58:05.383Z,6.40
2023-05-15T05:01:25.893Z,6.50
2023-05-15T05:04:33.092Z,6.63
2023-05-15T05:07:50.335Z,9.32
2023-05-15T05:11:05.699Z,10.75
2023-05-15T05:14:09.928Z,28.00
2023-05-15T05:17:18.728Z,14.57
2023-05-15T05:20:37.690Z,14.52
2023-05-15T05:23:45.976Z,16.80
2023-05-15T05:27:10.274Z,10.63
2023-05-15T05:30:18.953Z,9.38
2023-05-15T05:33:59.352Z,7.65
2023-05-15T05:37:11.742Z,7.40
2023-05-15T05:40:23.559Z,5.90
2023-05-15T05:43:33.461Z,6.45
2023-05-15T05:46:40.497Z,15.35
2023-05-15T05:49:44.697Z,7.57
2023-05-15T05:53:25.435Z,7.30
2023-05-15T05:56:43.282Z,7.03
2023-05-15T05:59:52.494Z,6.05
2023-05-15T06:02:59.284Z,10.57
2023-05-15T06:06:06.613Z,9.77
2023-05-15T06:09:10.747Z,10.65
2023-05-15T06:12:17.275Z,8.45
2023-05-15T06:15:22.772Z,7.75
2023-05-15T06:18:26.961Z,6.70
2023-05-15T06:21:31.054Z,10.13
2023-05-15T06:24:34.964Z,6.65
2023-05-15T06:27:38.959Z,8.60
2023-05-15T06:30:43.577Z,11.80
2023-05-15T06:33:47.645Z,13.38
2023-05-15T06:36:56.374Z,13.65
2023-05-15T06:40:00.369Z,16.65
2023-05-15T06:43:10.080Z,11.38
2023-05-15T06:46:17.118Z,7.35
2023-05-15T06:49:27.059Z,9.60
2023-05-15T06:52:34.347Z,8.43
2023-05-15T06:55:41.213Z,9.05
2023-05-15T06:58:45.733Z,12.40
2023-05-15T07:01:50.273Z,14.68
2023-05-15T07:04:54.229Z,16.40
2023-05-15T07:07:58.062Z,12.07
2023-05-15T07:11:02.643Z,7.72
2023-05-15T07:14:07.880Z,9.02
2023-05-15T07:17:12.902Z,12.93
2023-05-15T07:20:17.020Z,7.82
2023-05-15T07:23:22.668Z,11.15
2023-05-15T07:26:34.748Z,9.27
2023-05-15T07:29:42.541Z,10.85
2023-05-15T07:32:46.675Z,11.55
2023-05-15T07:35:53.244Z,7.28
2023-05-15T07:38:57.274Z,8.00
2023-05-15T07:42:04.559Z,7.13
2023-05-15T07:45:09.660Z,9.65
2023-05-15T07:48:20.307Z,6.85
2023-05-15T07:51:24.357Z,8.70
2023-05-15T07:54:28.769Z,11.63
2023-05-15T07:57:33.049Z,8.05
2023-05-15T08:00:43.337Z,8.23
2023-05-15T08:04:36.191Z,7.90
2023-05-15T08:08:18.449Z,10.43
2023-05-15T08:15:30.248Z,8.23
2023-05-15T08:18:38.463Z,11.00
2023-05-15T08:21:45.818Z,11.32
2023-05-15T08:24:53.131Z,10.88
2023-05-15T08:28:05.378Z,10.20
2023-05-15T08:31:15.589Z,10.23
2023-05-15T08:34:20.256Z,12.00
2023-05-15T08:37:26.650Z,11.13
2023-05-15T08:40:38.951Z,8.88
2023-05-15T08:43:45.148Z,12.80
2023-05-15T08:46:57.025Z,9.80
2023-05-15T08:50:15.692Z,9.73
2023-05-15T08:53:22.084Z,11.75
2023-05-15T08:56:29.721Z,11.82
2023-05-15T08:59:33.684Z,10.25
2023-05-15T09:02:42.771Z,9.25
2023-05-15T09:05:53.937Z,9.68
2023-05-15T09:09:02.930Z,14.82
2023-05-15T09:12:09.320Z,13.05
2023-05-15T09:15:18.863Z,16.42
2023-05-15T09:18:26.817Z,17.35
2023-05-15T09:21:36.518Z,15.07
2023-05-15T09:24:41.042Z,11.07
2023-05-15T09:27:45.516Z,13.87
2023-05-15T09:30:51.195Z,19.13
2023-05-15T09:34:07.612Z,14.48
2023-05-15T09:37:32.094Z,15.75
2023-05-15T09:40:40.663Z,15.68
2023-05-15T09:43:44.684Z,16.95
2023-05-15T09:46:55.617Z,15.60
2023-05-15T09:49:59.977Z,17.15
2023-05-15T09:53:04.702Z,18.35
2023-05-15T09:56:20.132Z,20.17
2023-05-15T09:59:27.232Z,18.65
2023-05-15T10:02:35.320Z,18.63
2023-05-15T10:05:43.511Z,17.27
2023-05-15T10:08:56.600Z,16.63
2023-05-15T10:12:01.170Z,14.73
2023-05-15T10:15:06.393Z,16.83
2023-05-15T10:18:13.861Z,16.30
2023-05-15T10:21:20.525Z,13.68
2023-05-15T10:24:26.996Z,19.75
2023-05-15T10:27:32.029Z,14.65
2023-05-15T10:30:36.423Z,15.52
2023-05-15T10:33:41.577Z,13.95
2023-05-15T10:36:46.524Z,14.73
2023-05-15T10:39:51.248Z,13.70
2023-05-15T10:43:04.024Z,14.90
2023-05-15T10:46:09.149Z,22.00
2023-05-15T10:49:14.557Z,15.10
2023-05-15T10:52:18.688Z,13.32
2023-05-15T10:55:24.535Z,14.48
2023-05-15T10:58:31.629Z,16.75
2023-05-15T11:01:38.074Z,14.35
2023-05-15T11:04:45.722Z,14.52
2023-05-15T11:08:22.381Z,17.00
2023-05-15T11:11:58.227Z,16.95
2023-05-15T11:15:05.646Z,17.60
2023-05-15T11:18:10.764Z,15.95
2023-05-15T11:21:17.090Z,15.05
2023-05-15T11:24:24.748Z,15.38
2023-05-15T11:27:31.636Z,16.88
2023-05-15T11:30:37.997Z,18.05
2023-05-15T11:33:42.922Z,16.85
2023-05-15T11:36:47.267Z,15.45
2023-05-15T11:39:54.832Z,16.45
2023-05-15T11:43:04.435Z,16.13
2023-05-15T11:46:13.638Z,20.83
2023-05-15T11:49:22.521Z,15.50
2023-05-15T11:52:28.733Z,18.63
2023-05-15T11:55:34.091Z,18.73
2023-05-15T11:58:41.469Z,18.67
2023-05-15T12:01:50.018Z,19.45
2023-05-15T12:04:53.975Z,23.50
2023-05-15T12:07:58.795Z,21.77
2023-05-15T12:11:06.658Z,20.50
2023-05-15T12:14:14.238Z,18.10
2023-05-15T12:17:19.839Z,19.70
2023-05-15T12:20:25.538Z,20.02
2023-05-15T12:23:31.064Z,19.77
2023-05-15T12:26:40.775Z,23.67
2023-05-15T12:29:44.916Z,18.25
2023-05-15T12:32:49.117Z,17.23
2023-05-15T12:36:02.014Z,23.95
2023-05-15T12:39:09.928Z,25.08
2023-05-15T12:42:15.548Z,17.40
2023-05-15T12:45:21.375Z,22.52
2023-05-15T12:48:32.930Z,22.83
2023-05-15T12:51:47.683Z,17.15
2023-05-15T12:54:52.184Z,21.05
2023-05-15T12:58:02.988Z,25.30
2023-05-15T13:01:09.853Z,20.08
2023-05-15T13:04:14.009Z,17.20
2023-05-15T13:07:18.302Z,18.40
2023-05-15T13:10:26.323Z,20.60
2023-05-15T13:13:47.721Z,20.70
2023-05-15T13:16:52.278Z,18.90
2023-05-15T13:19:56.863Z,14.97
2023-05-15T13:23:02.435Z,16.85
2023-05-15T13:26:06.980Z,20.63
2023-05-15T13:29:10.876Z,17.15
2023-05-15T13:32:15.319Z,21.20
2023-05-15T13:35:19.300Z,27.73
2023-05-15T13:38:23.323Z,21.42
2023-05-15T13:41:27.418Z,22.08
2023-05-15T13:44:32.995Z,17.23
2023-05-15T13:50:41.056Z,16.15
2023-05-15T13:53:44.867Z,18.30
2023-05-15T13:56:49.000Z,15.68
2023-05-15T13:59:53.068Z,13.88
2023-05-15T14:02:57.166Z,14.95
2023-05-15T14:06:01.425Z,15.77
2023-05-15T14:09:05.433Z,16.40
2023-05-15T14:12:10.746Z,19.08
2023-05-15T14:15:14.776Z,13.57
2023-05-15T14:18:19.119Z,15.85
2023-05-15T14:21:49.187Z,8.13
2023-05-15T14:25:22.122Z,9.27
2023-05-15T14:28:48.554Z,9.73
2023-05-15T14:32:03.114Z,9.23
2023-05-15T14:35:12.661Z,11.80
2023-05-15T14:38:17.091Z,14.50
2023-05-15T14:41:22.510Z,12.03
2023-05-15T14:44:29.832Z,10.70
2023-05-15T14:47:44.464Z,11.63
2023-05-15T14:50:51.980Z,14.15
2023-05-15T14:53:56.090Z,13.60
2023-05-15T14:57:02.205Z,12.93
2023-05-15T15:00:10.570Z,13.77
2023-05-15T15:03:14.945Z,11.50
2023-05-15T15:06:19.503Z,10.93
2023-05-15T15:09:28.924Z,13.40
2023-05-15T15:12:36.060Z,13.32
2023-05-15T15:15:41.553Z,12.55
2023-05-15T15:18:45.794Z,18.38
2023-05-15T15:21:52.903Z,13.07
2023-05-15T15:24:59.794Z,11.65
2023-05-15T15:28:05.780Z,10.63
2023-05-15T15:31:10.839Z,14.60
2023-05-15T15:34:17.669Z,13.43
2023-05-15T15:37:21.609Z,16.88
2023-05-15T15:40:26.538Z,13.93
2023-05-15T15:43:31.386Z,14.93
2023-05-15T15:46:35.509Z,14.23
2023-05-15T15:49:39.645Z,17.73
2023-05-15T15:52:43.505Z,13.27
2023-05-15T15:55:48.101Z,16.25
2023-05-15T15:58:51.850Z,16.67
2023-05-15T16:01:56.690Z,14.43
2023-05-15T16:05:00.744Z,15.27
2023-05-15T16:08:07.960Z,13.38
2023-05-15T16:11:12.075Z,14.68
2023-05-15T16:14:16.414Z,15.32
2023-05-15T16:17:20.377Z,15.05
2023-05-15T16:20:25.184Z,14.93
2023-05-15T16:23:29.454Z,16.40
2023-05-15T16:26:35.215Z,15.45
2023-05-15T16:29:39.310Z,13.07
2023-05-15T16:32:43.145Z,16.08
2023-05-15T16:35:50.289Z,12.02
2023-05-15T16:38:55.207Z,14.30
2023-05-15T16:41:59.290Z,11.00
2023-05-15T16:45:03.302Z,17.88
2023-05-15T16:48:09.959Z,11.07
2023-05-15T16:51:17.021Z,14.05
2023-05-15T16:54:20.982Z,15.30
2023-05-15T16:57:25.097Z,12.15
2023-05-15T17:00:29.188Z,9.15
2023-05-15T17:03:33.535Z,12.57
2023-05-15T17:06:37.668Z,16.30
2023-05-15T17:09:43.870Z,15.85
2023-05-15T17:12:47.664Z,15.25
2023-05-15T17:15:52.085Z,10.32
2023-05-15T17:18:56.143Z,12.43
2023-05-15T17:22:00.649Z,11.85
2023-05-15T17:25:05.272Z,11.25
2023-05-15T17:28:12.157Z,13.18
2023-05-15T17:31:19.936Z,11.00
2023-05-15T17:34:24.031Z,12.75
2023-05-15T17:37:28.104Z,9.75
2023-05-15T17:40:31.867Z,12.68
2023-05-15T17:43:35.767Z,16.33
2023-05-15T17:46:40.151Z,12.13
2023-05-15T17:49:44.216Z,12.82
2023-05-15T17:52:48.495Z,9.88
2023-05-15T17:55:55.251Z,12.38
2023-05-15T17:58:59.561Z,15.02
2023-05-15T18:02:03.954Z,10.98
2023-05-15T18:05:08.475Z,10.90
2023-05-15T18:08:13.211Z,10.57
2023-05-15T18:11:22.396Z,12.52
2023-05-15T18:14:27.156Z,8.45
2023-05-15T18:17:31.681Z,10.65
2023-05-15T18:20:37.714Z,7.82
2023-05-15T18:23:41.712Z,11.20
2023-05-15T18:26:46.016Z,10.13
2023-05-15T18:29:50.264Z,14.00
2023-05-15T18:33:17.456Z,10.52
2023-05-15T18:36:25.054Z,7.47
2023-05-15T18:39:31.909Z,9.25
2023-05-15T18:42:36.383Z,11.27
2023-05-15T18:45:43.286Z,12.40
2023-05-15T18:48:51.720Z,12.27
2023-05-15T18:51:56.256Z,9.43
2023-05-15T18:55:04.905Z,10.27
2023-05-15T18:58:11.896Z,9.35
2023-05-15T19:01:15.928Z,9.75
2023-05-15T19:04:19.857Z,10.57
2023-05-15T19:07:29.601Z,10.82
2023-05-15T19:10:36.275Z,8.80
2023-05-15T19:13:40.281Z,12.32
2023-05-15T19:16:44.659Z,11.35
2023-05-15T19:19:55.081Z,11.85
2023-05-15T19:23:06.711Z,19.63
2023-05-15T19:26:11.730Z,15.00
2023-05-15T19:29:23.099Z,14.40
2023-05-15T19:32:30.442Z,11.35
2023-05-15T19:35:37.358Z,11.65
2023-05-15T19:38:41.901Z,11.15
2023-05-15T19:41:46.192Z,11.82
2023-05-15T19:44:50.313Z,13.82
2023-05-15T19:47:54.562Z,12.40
2023-05-15T19:50:58.470Z,10.77
2023-05-15T19:54:03.071Z,13.35
2023-05-15T19:57:08.606Z,12.55
2023-05-15T20:00:13.937Z,12.52
2023-05-15T20:03:20.687Z,15.95
2023-05-15T20:06:27.241Z,14.32
2023-05-15T20:09:33.623Z,14.52
2023-05-15T20:12:40.628Z,16.33
2023-05-15T20:15:44.639Z,15.35
2023-05-15T20:18:48.803Z,14.13
2023-05-15T20:21:52.765Z,12.80
2023-05-15T20:25:04.412Z,15.05
2023-05-15T20:28:09.204Z,16.17
2023-05-15T20:31:13.678Z,19.48
2023-05-15T20:34:21.185Z,14.10
2023-05-15T20:37:38.437Z,17.17
2023-05-15T20:40:43.196Z,15.38
2023-05-15T20:43:48.076Z,15.93
2023-05-15T20:46:52.537Z,17.35
2023-05-15T20:49:56.980Z,17.20
2023-05-15T20:53:03.931Z,15.30
2023-05-15T20:56:08.450Z,19.50
2023-05-15T20:59:15.646Z,15.82
2023-05-15T21:02:23.122Z,16.45
2023-05-15T21:05:27.882Z,14.53
2023-05-15T21:08:34.207Z,16.52
2023-05-15T21:11:38.312Z,19.90
2023-05-15T21:14:45.512Z,17.42
2023-05-15T21:18:08.457Z,20.02
2023-05-15T21:21:38.457Z,25.55
2023-05-15T21:24:56.436Z,20.30
2023-05-15T21:28:26.561Z,20.27
2023-05-15T21:31:38.633Z,13.88
2023-05-15T21:34:43.219Z,11.57
2023-05-15T21:37:48.969Z,14.77
2023-05-15T21:40:59.398Z,14.20
2023-05-15T21:44:04.143Z,17.65
2023-05-15T21:47:08.168Z,13.45
2023-05-15T21:50:12.657Z,15.52
2023-05-15T21:53:16.589Z,17.98
2023-05-15T21:56:23.492Z,12.73
2023-05-15T21:59:30.388Z,12.68
2023-05-15T22:02:34.491Z,12.13
2023-05-15T22:05:40.962Z,11.73
2023-05-15T22:08:48.741Z,11.60
2023-05-15T22:11:52.827Z,8.68
2023-05-15T22:15:00.240Z,11.80
2023-05-15T22:18:08.331Z,10.32
2023-05-15T22:21:12.737Z,8.55
2023-05-15T22:24:17.063Z,10.82
2023-05-15T22:27:23.202Z,8.07
2023-05-15T22:30:27.952Z,8.48
2023-05-15T22:33:32.072Z,8.63
2023-05-15T22:36:37.597Z,12.52
2023-05-15T22:39:41.896Z,10.38
2023-05-15T22:42:46.373Z,8.87
2023-05-15T22:46:05.078Z,7.70
2023-05-15T22:49:29.223Z,10.48
2023-05-15T22:53:51.035Z,7.97
2023-05-15T22:58:20.622Z,8.27
2023-05-15T23:01:59.643Z,9.13
2023-05-15T23:15:10.903Z,6.80
2023-05-15T23:23:27.563Z,7.90
2023-05-15T23:27:45.735Z,5.90
2023-05-15T23:32:08.348Z,7.70
2023-05-15T23:36:26.433Z,15.35
2023-05-15T23:40:45.680Z,10.23
2023-05-15T23:45:06.305Z,8.13
2023-05-15T23:49:27.123Z,7.85
2023-05-15T23:53:45.346Z,11.48
2023-05-15T23:58:03.419Z,10.95
